Time;durP1;ratioP1;P1;durP2;ratioP2;P2;SDS_P1;SDS_P2;PMS_P1;PMS_P2;Temp;Humidity;BMP_temperature;BMP_pressure;BME280_temperature;BME280_humidity;BME280_pressure;Samples;Min_cycle;Max_cycle;Signal;HPM_P1;HPM_P2
2022/01/20 00:00:54;;;;;;;;;;;;;;;4.59;89.33;101658.41;5034235;27;20349;-69
2022/01/20 00:03:23;;;;;;;;;;;;;;;4.68;89.57;101670.22;5041823;27;19909;-68
2022/01/20 00:09:14;;;;;;;;;;;;;;;4.47;89.95;101668.56;5034367;27;19919;-68
2022/01/20 00:27:33;;;;;;;;;;;;;;;4.18;89.44;101658.66;5061866;27;20344;-68
2022/01/20 00:35:25;;;;;;;;;;;;;;;4.02;89.49;101664.59;5074336;27;19954;-70
2022/01/20 00:37:50;;;;;;;;;;;;;;;3.96;89.26;101680.59;5048263;27;20333;-69
2022/01/20 00:40:16;;;;;;;;;;;;;;;3.82;90.33;101677.75;5053226;27;19948;-69
2022/01/20 00:42:41;;;;;;;;;;;;;;;3.80;90.41;101683.06;5052609;27;19912;-68
2022/01/20 00:45:06;;;;;;;;;;;;;;;3.87;90.10;101681.03;5034994;27;19936;-69
2022/01/20 00:47:32;;;;;;;;;;;;;;;3.78;90.42;101680.50;5052088;27;19915;-69
2022/01/20 00:49:57;;;;;;;;;;;;;;;3.78;90.48;101675.28;5026152;27;19948;-69
2022/01/20 00:52:22;;;;;;;;;;;;;;;3.77;90.01;101670.13;5026040;27;19923;-68
2022/01/20 00:54:47;;;;;;;;;;;;;;;3.70;90.21;101677.41;5053618;27;19970;-66
2022/01/20 00:57:13;;;;;;;;;;;;;;;3.97;89.97;101678.84;5054277;27;20423;-70
2022/01/20 00:59:38;;;;;;;;;;;;;;;3.79;88.73;101689.22;5061054;27;20507;-70
2022/01/20 01:02:05;;;;;;;;;;;;;;;3.66;89.27;101693.31;5052559;27;20448;-69
2022/01/20 01:04:30;;;;;;;;;;;;;;;3.60;90.04;101690.03;5051305;27;19983;-69
2022/01/20 01:09:33;;;;;;;;;;;;;;;3.58;90.35;101711.97;5023643;27;19912;-69
2022/01/20 01:12:02;;;;;;;;;;;;;;;3.56;90.54;101704.19;5043899;27;19946;-70
2022/01/20 01:14:30;;;;;;;;;;;;;;;3.49;90.34;101707.16;5056004;27;20015;-69
2022/01/20 01:24:29;;;;;;;;;;;;;;;3.58;89.71;101707.59;5054588;27;20284;-68
2022/01/20 01:26:55;;;;;;;;;;;;;;;3.50;90.01;101711.44;5017662;27;20863;-70
2022/01/20 01:30:02;;;;;;;;;;;;;;;3.60;90.21;101720.59;5016367;27;20843;-70
2022/01/20 01:32:08;;;;;;;;;;;;;;;3.63;90.37;101711.78;5034249;27;20755;-69
2022/01/20 01:34:36;;;;;;;;;;;;;;;3.54;89.89;101702.53;5054990;27;19963;-66
2022/01/20 01:39:26;;;;;;;;;;;;;;;3.53;90.34;101701.69;5030924;27;19908;-70
2022/01/20 01:41:52;;;;;;;;;;;;;;;3.58;89.64;101694.50;5024974;27;19912;-69
2022/01/20 01:44:29;;;;;;;;;;;;;;;3.51;89.40;101695.69;5037658;27;19912;-68
2022/01/20 01:46:55;;;;;;;;;;;;;;;3.46;89.60;101699.44;5031231;27;20223;-69
2022/01/20 01:49:21;;;;;;;;;;;;;;;3.51;89.14;101706.16;5037060;27;19910;-69
2022/01/20 01:51:46;;;;;;;;;;;;;;;3.43;89.40;101706.47;5051996;27;19934;-68
2022/01/20 01:54:12;;;;;;;;;;;;;;;3.43;89.09;101713.50;5032126;27;20383;-69
2022/01/20 01:56:37;;;;;;;;;;;;;;;3.48;88.74;101710.66;5016516;27;19907;-67
2022/01/20 01:59:02;;;;;;;;;;;;;;;3.48;88.86;101710.66;5054632;27;19970;-71
2022/01/20 02:01:31;;;;;;;;;;;;;;;3.54;89.09;101710.38;5051201;27;19912;-70
2022/01/20 02:04:00;;;;;;;;;;;;;;;3.63;88.42;101704.75;5033283;27;19928;-68
2022/01/20 02:19:39;;;;;;;;;;;;;;;3.59;87.97;101677.88;5036710;27;19964;-69
2022/01/20 02:22:05;;;;;;;;;;;;;;;3.71;88.02;101702.66;5033305;27;19919;-69
2022/01/20 02:24:30;;;;;;;;;;;;;;;3.72;88.03;101709.59;5060831;27;19948;-69
2022/01/20 02:26:55;;;;;;;;;;;;;;;3.68;88.02;101708.03;5046587;27;19974;-68
2022/01/20 02:29:21;;;;;;;;;;;;;;;3.58;87.73;101706.72;5081470;27;19899;-69
2022/01/20 02:31:46;;;;;;;;;;;;;;;3.63;88.10;101707.38;5076766;27;20549;-68
2022/01/20 02:34:12;;;;;;;;;;;;;;;3.65;87.97;101708.16;5059443;27;20205;-68
2022/01/20 02:36:39;;;;;;;;;;;;;;;3.70;88.13;101706.19;5044269;27;20711;-68
2022/01/20 02:39:20;;;;;;;;;;;;;;;3.74;87.73;101697.28;5026638;27;19907;-67
2022/01/20 02:44:51;;;;;;;;;;;;;;;3.70;87.01;101706.19;5055699;27;20298;-68
2022/01/20 02:47:16;;;;;;;;;;;;;;;3.69;86.76;101704.47;5018809;27;19920;-68
2022/01/20 02:49:42;;;;;;;;;;;;;;;3.66;87.52;101701.16;5032340;27;20012;-68
2022/01/20 02:52:07;;;;;;;;;;;;;;;3.71;86.29;101696.56;5029155;27;19924;-69
2022/01/20 02:54:32;;;;;;;;;;;;;;;3.70;86.72;101690.47;5037234;27;20152;-69
2022/01/20 02:56:57;;;;;;;;;;;;;;;3.65;87.01;101681.97;5032687;27;19911;-68
2022/01/20 02:59:23;;;;;;;;;;;;;;;3.66;87.11;101681.06;5033075;27;19915;-68
2022/01/20 03:01:48;;;;;;;;;;;;;;;3.65;86.71;101689.81;5033930;27;19940;-67
2022/01/20 03:04:13;;;;;;;;;;;;;;;3.65;86.99;101705.53;5034094;27;19996;-67
2022/01/20 03:06:38;;;;;;;;;;;;;;;3.68;86.23;101679.25;5012939;27;19915;-67
2022/01/20 03:09:04;;;;;;;;;;;;;;;3.62;86.74;101676.88;5021273;27;19952;-68
2022/01/20 03:11:29;;;;;;;;;;;;;;;3.56;87.16;101670.16;5034760;27;19976;-66
2022/01/20 03:13:54;;;;;;;;;;;;;;;3.56;86.44;101678.00;5036236;27;19952;-69
2022/01/20 03:16:20;;;;;;;;;;;;;;;3.59;86.25;101679.63;5033262;27;20442;-70
2022/01/20 03:18:45;;;;;;;;;;;;;;;3.58;86.20;101681.41;5014757;27;20203;-67
2022/01/20 03:21:10;;;;;;;;;;;;;;;3.55;86.67;101683.31;5014990;27;19908;-69
2022/01/20 03:23:35;;;;;;;;;;;;;;;3.60;86.14;101683.97;5035036;27;19914;-69
2022/01/20 03:26:01;;;;;;;;;;;;;;;3.64;86.06;101685.53;5016731;27;20001;-67
2022/01/20 03:28:26;;;;;;;;;;;;;;;3.63;86.31;101691.69;5034566;27;19908;-68
2022/01/20 03:30:51;;;;;;;;;;;;;;;3.66;86.05;101688.91;5033184;27;19928;-66
2022/01/20 03:33:16;;;;;;;;;;;;;;;3.74;85.88;101694.66;5033317;27;19918;-68
2022/01/20 03:35:41;;;;;;;;;;;;;;;3.71;85.21;101681.72;5035535;27;19933;-68
2022/01/20 03:38:07;;;;;;;;;;;;;;;3.68;85.52;101676.63;5034142;27;20032;-69
2022/01/20 03:40:32;;;;;;;;;;;;;;;3.75;84.77;101680.66;5029831;27;19904;-68
2022/01/20 03:42:58;;;;;;;;;;;;;;;3.80;84.71;101679.59;5014103;27;19904;-68
2022/01/20 03:45:26;;;;;;;;;;;;;;;3.79;84.58;101673.50;5034482;27;20008;-69
2022/01/20 03:47:54;;;;;;;;;;;;;;;3.76;85.27;101673.66;5054241;27;19999;-68
2022/01/20 03:53:04;;;;;;;;;;;;;;;3.81;84.71;101671.69;5054763;27;19918;-68
2022/01/20 03:55:29;;;;;;;;;;;;;;;3.84;83.57;101668.06;5053701;27;19907;-68
2022/01/20 03:57:54;;;;;;;;;;;;;;;3.71;83.90;101667.75;5058611;27;20333;-67
2022/01/20 04:00:19;;;;;;;;;;;;;;;3.75;84.16;101657.09;5052554;27;19915;-69
2022/01/20 04:02:45;;;;;;;;;;;;;;;3.70;84.11;101664.31;5054520;27;20352;-68
2022/01/20 04:05:10;;;;;;;;;;;;;;;3.75;84.55;101653.63;5053939;27;20023;-69
2022/01/20 04:07:35;;;;;;;;;;;;;;;3.82;83.75;101646.34;5003519;28;20074;-67
2022/01/20 04:10:00;;;;;;;;;;;;;;;3.73;84.58;101651.06;5046122;27;19974;-68
2022/01/20 04:12:25;;;;;;;;;;;;;;;3.77;84.03;101650.00;5016907;27;20015;-67
2022/01/20 04:14:51;;;;;;;;;;;;;;;3.57;84.98;101652.72;5019180;27;19917;-67
2022/01/20 04:17:20;;;;;;;;;;;;;;;3.61;85.20;101644.63;5053810;27;19923;-68
2022/01/20 04:19:45;;;;;;;;;;;;;;;3.75;84.43;101651.88;5037496;27;20253;-67
2022/01/20 04:22:10;;;;;;;;;;;;;;;3.59;84.66;101662.16;5034103;27;19912;-66
2022/01/20 04:24:37;;;;;;;;;;;;;;;3.70;84.78;101663.47;5053198;27;19911;-68
2022/01/20 04:27:02;;;;;;;;;;;;;;;3.51;85.12;101659.06;5053293;27;20309;-70
2022/01/20 04:29:28;;;;;;;;;;;;;;;3.59;85.83;101650.84;5018339;27;19899;-67
2022/01/20 04:31:53;;;;;;;;;;;;;;;3.61;85.48;101649.03;5036126;27;19919;-69
2022/01/20 04:34:18;;;;;;;;;;;;;;;3.53;85.89;101651.97;5073944;27;19911;-70
2022/01/20 04:36:46;;;;;;;;;;;;;;;3.59;85.27;101651.69;5041303;27;19964;-67
2022/01/20 04:39:13;;;;;;;;;;;;;;;3.63;85.54;101654.19;5025940;27;19911;-67
2022/01/20 04:41:39;;;;;;;;;;;;;;;3.58;85.35;101670.09;5033217;27;19968;-70
2022/01/20 04:44:07;;;;;;;;;;;;;;;3.78;85.01;101675.28;5055797;27;20276;-67
2022/01/20 04:46:39;;;;;;;;;;;;;;;3.70;84.77;101656.44;5029485;27;19920;-67
2022/01/20 04:57:05;;;;;;;;;;;;;;;3.63;85.24;101643.72;5023994;27;19915;-68
2022/01/20 04:57:28;;;;;;;;;;;;;;;3.48;86.33;101659.19;5033487;27;19910;-66
2022/01/20 04:59:54;;;;;;;;;;;;;;;3.47;86.37;101661.88;5033725;27;19907;-67
2022/01/20 05:02:19;;;;;;;;;;;;;;;3.42;86.37;101670.75;5014086;27;20183;-67
2022/01/20 05:04:45;;;;;;;;;;;;;;;3.61;86.46;101675.22;5013735;27;20750;-67
2022/01/20 05:07:19;;;;;;;;;;;;;;;3.45;86.46;101667.16;5019085;27;20001;-68
2022/01/20 05:09:44;;;;;;;;;;;;;;;3.40;86.91;101671.78;5031916;27;19911;-68
2022/01/20 05:12:13;;;;;;;;;;;;;;;3.55;86.11;101667.59;5031351;27;20024;-68
2022/01/20 05:14:38;;;;;;;;;;;;;;;3.44;86.39;101674.19;5033303;27;19911;-68
2022/01/20 05:17:03;;;;;;;;;;;;;;;3.35;86.71;101679.81;5032052;27;20124;-69
2022/01/20 05:19:29;;;;;;;;;;;;;;;3.56;86.13;101678.00;5027823;27;20314;-67
2022/01/20 05:21:54;;;;;;;;;;;;;;;3.64;85.77;101674.19;5032875;27;20142;-68
2022/01/20 05:24:22;;;;;;;;;;;;;;;3.63;85.58;101659.44;5031194;27;20830;-69
2022/01/20 05:26:47;;;;;;;;;;;;;;;3.53;85.94;101662.44;5032641;27;19992;-68
2022/01/20 05:29:13;;;;;;;;;;;;;;;3.58;86.19;101659.63;5036998;27;19992;-66
2022/01/20 05:31:38;;;;;;;;;;;;;;;3.53;86.84;101666.84;5033909;27;20542;-68
2022/01/20 05:34:03;;;;;;;;;;;;;;;3.68;86.06;101671.38;5031209;27;20235;-68
2022/01/20 05:36:28;;;;;;;;;;;;;;;3.64;85.78;101682.91;5034970;27;20071;-69
2022/01/20 05:38:53;;;;;;;;;;;;;;;3.65;86.54;101673.28;5033340;27;19903;-69
2022/01/20 05:41:19;;;;;;;;;;;;;;;3.69;85.71;101673.06;5030562;27;20257;-68
2022/01/20 05:43:45;;;;;;;;;;;;;;;3.59;86.24;101677.03;5012919;27;19912;-67
2022/01/20 05:46:10;;;;;;;;;;;;;;;3.71;85.53;101676.47;5041228;27;20818;-68
2022/01/20 05:48:36;;;;;;;;;;;;;;;3.71;85.36;101681.72;5054886;27;21017;-68
2022/01/20 05:51:02;;;;;;;;;;;;;;;3.61;85.94;101681.28;5033747;27;19923;-67
2022/01/20 05:53:27;;;;;;;;;;;;;;;3.61;85.60;101686.50;5051360;27;19908;-68
2022/01/20 05:55:52;;;;;;;;;;;;;;;3.62;84.97;101689.97;5032298;27;20024;-69
2022/01/20 05:58:19;;;;;;;;;;;;;;;3.58;85.19;101697.13;5052684;27;20028;-69
2022/01/20 06:00:44;;;;;;;;;;;;;;;3.58;85.67;101704.97;5051936;27;19903;-68
2022/01/20 06:05:53;;;;;;;;;;;;;;;3.58;85.43;101717.19;5058919;27;20352;-68
2022/01/20 06:08:19;;;;;;;;;;;;;;;3.65;85.14;101723.84;5035129;27;20674;-69
2022/01/20 06:10:44;;;;;;;;;;;;;;;3.66;85.77;101724.72;5029819;28;20909;-67
2022/01/20 06:13:09;;;;;;;;;;;;;;;3.57;86.00;101724.22;5016721;27;20039;-68
2022/01/20 06:15:34;;;;;;;;;;;;;;;3.48;86.38;101721.13;5035039;27;19997;-68
2022/01/20 06:18:00;;;;;;;;;;;;;;;3.61;87.15;101719.69;5039766;27;19959;-68
2022/01/20 06:20:25;;;;;;;;;;;;;;;3.59;87.16;101726.75;5064813;27;19944;-68
2022/01/20 06:22:50;;;;;;;;;;;;;;;3.53;87.12;101740.97;5044062;27;20347;-67
2022/01/20 06:25:15;;;;;;;;;;;;;;;3.47;87.27;101737.75;5055752;27;20131;-68
2022/01/20 06:27:41;;;;;;;;;;;;;;;3.46;87.47;101739.53;5055995;27;20290;-68
2022/01/20 06:30:06;;;;;;;;;;;;;;;3.44;86.75;101736.97;5036725;27;19915;-68
2022/01/20 06:32:32;;;;;;;;;;;;;;;3.44;87.15;101738.72;5033421;27;19922;-68
2022/01/20 06:34:57;;;;;;;;;;;;;;;3.33;87.25;101736.59;5035507;27;19903;-68
2022/01/20 06:37:22;;;;;;;;;;;;;;;3.33;87.94;101746.19;5046425;27;19918;-67
2022/01/20 06:39:47;;;;;;;;;;;;;;;3.25;87.19;101749.97;5054230;27;20138;-68
2022/01/20 06:42:13;;;;;;;;;;;;;;;3.32;87.50;101766.28;5053594;27;20312;-68
2022/01/20 06:44:38;;;;;;;;;;;;;;;3.36;87.49;101761.78;5054467;27;19911;-68
2022/01/20 06:47:03;;;;;;;;;;;;;;;3.43;86.10;101766.66;5054506;27;19919;-68
2022/01/20 06:49:29;;;;;;;;;;;;;;;3.40;86.18;101782.50;5074467;27;19898;-68
2022/01/20 06:51:54;;;;;;;;;;;;;;;3.31;86.41;101779.41;5044363;27;19988;-68
2022/01/20 06:54:19;;;;;;;;;;;;;;;3.47;85.77;101790.09;5052681;27;19944;-68
2022/01/20 06:56:44;;;;;;;;;;;;;;;3.38;84.94;101800.00;5052307;27;19911;-67
2022/01/20 06:59:10;;;;;;;;;;;;;;;3.42;84.87;101805.97;5053147;27;20424;-68
2022/01/20 07:01:35;;;;;;;;;;;;;;;3.33;84.74;101817.69;5033067;27;20169;-68
2022/01/20 07:04:01;;;;;;;;;;;;;;;3.31;84.33;101819.50;5034803;27;20158;-68
2022/01/20 07:06:27;;;;;;;;;;;;;;;3.43;83.94;101824.22;5035332;27;19908;-68
2022/01/20 07:08:52;;;;;;;;;;;;;;;3.30;84.31;101820.44;5053461;27;19963;-67
2022/01/20 07:11:17;;;;;;;;;;;;;;;3.34;83.75;101827.25;5036989;27;19922;-67
2022/01/20 07:13:42;;;;;;;;;;;;;;;3.32;83.08;101833.44;5055720;27;21202;-68
2022/01/20 07:16:07;;;;;;;;;;;;;;;3.25;83.41;101825.00;5038757;27;19917;-68
2022/01/20 07:18:33;;;;;;;;;;;;;;;3.35;82.63;101831.53;5038413;27;20282;-69
2022/01/20 07:20:58;;;;;;;;;;;;;;;3.30;82.82;101836.13;5022537;27;19915;-69
2022/01/20 07:23:24;;;;;;;;;;;;;;;3.36;82.85;101842.88;5026480;27;20318;-68
2022/01/20 07:25:49;;;;;;;;;;;;;;;3.31;82.73;101843.03;5036369;27;19907;-67
2022/01/20 07:28:14;;;;;;;;;;;;;;;3.32;82.97;101862.22;5058536;27;19974;-66
2022/01/20 07:30:39;;;;;;;;;;;;;;;3.37;83.40;101862.88;5058437;27;19911;-66
2022/01/20 07:33:05;;;;;;;;;;;;;;;3.42;83.88;101868.78;5037926;27;20256;-67
2022/01/20 07:35:30;;;;;;;;;;;;;;;3.35;83.16;101873.41;5037041;27;20809;-67
2022/01/20 07:37:55;;;;;;;;;;;;;;;3.33;83.67;101875.25;5033534;27;20822;-67
2022/01/20 07:40:21;;;;;;;;;;;;;;;3.31;83.56;101877.06;5057376;27;19911;-69
2022/01/20 07:42:46;;;;;;;;;;;;;;;3.33;83.58;101877.84;5030823;27;19912;-69
2022/01/20 07:45:11;;;;;;;;;;;;;;;3.34;83.84;101882.19;5038715;27;19915;-69
2022/01/20 07:47:36;;;;;;;;;;;;;;;3.47;82.96;101899.97;5037256;27;20144;-67
2022/01/20 07:50:02;;;;;;;;;;;;;;;3.47;82.32;101899.97;5039043;27;19960;-67
2022/01/20 07:52:27;;;;;;;;;;;;;;;3.48;82.99;101904.31;5031831;27;20658;-66
2022/01/20 07:54:52;;;;;;;;;;;;;;;3.57;82.34;101889.09;5026124;27;20012;-67
2022/01/20 07:57:18;;;;;;;;;;;;;;;3.61;82.89;101900.28;5008733;27;19967;-67
2022/01/20 07:59:43;;;;;;;;;;;;;;;3.66;81.31;101895.69;5032056;27;19907;-67
2022/01/20 08:02:09;;;;;;;;;;;;;;;3.72;81.14;101898.09;5036540;27;20144;-67
2022/01/20 08:04:34;;;;;;;;;;;;;;;3.75;79.79;101902.31;5047206;27;20362;-67
2022/01/20 08:06:59;;;;;;;;;;;;;;;3.68;80.18;101904.38;5067502;27;20252;-67
2022/01/20 08:09:24;;;;;;;;;;;;;;;3.66;79.07;101898.31;5037119;27;20496;-67
2022/01/20 08:11:49;;;;;;;;;;;;;;;3.67;78.03;101904.44;5014404;27;20914;-67
2022/01/20 08:14:15;;;;;;;;;;;;;;;3.66;78.03;101919.25;5021454;27;19914;-69
2022/01/20 08:16:40;;;;;;;;;;;;;;;3.65;76.38;101904.47;5036722;27;20037;-70
2022/01/20 08:19:05;;;;;;;;;;;;;;;3.70;77.12;101899.91;5072631;27;19906;-68
2022/01/20 08:21:30;;;;;;;;;;;;;;;3.57;77.82;101910.03;5056540;27;20662;-68
2022/01/20 08:23:56;;;;;;;;;;;;;;;3.62;77.18;101901.97;5056812;27;20873;-67
2022/01/20 08:26:21;;;;;;;;;;;;;;;3.73;76.13;101910.22;5056089;27;20805;-68
2022/01/20 08:28:46;;;;;;;;;;;;;;;3.68;75.97;101922.69;5036157;27;20545;-68
2022/01/20 08:31:11;;;;;;;;;;;;;;;3.77;75.54;101917.06;5036562;27;20268;-68
2022/01/20 08:33:37;;;;;;;;;;;;;;;3.71;76.12;101912.09;5037944;27;19899;-69
2022/01/20 08:36:02;;;;;;;;;;;;;;;3.64;76.70;101931.56;5056796;27;19903;-68
2022/01/20 08:38:27;;;;;;;;;;;;;;;3.80;75.48;101916.06;5055673;27;19911;-67
2022/01/20 08:40:52;;;;;;;;;;;;;;;3.70;75.06;101926.06;5021645;27;20004;-66
2022/01/20 08:43:18;;;;;;;;;;;;;;;3.63;75.62;101929.84;5055765;27;19948;-68
2022/01/20 08:45:44;;;;;;;;;;;;;;;3.71;75.08;101935.63;5055693;27;19967;-69
2022/01/20 08:48:12;;;;;;;;;;;;;;;3.95;75.08;101935.53;5040520;27;20283;-69
2022/01/20 08:50:37;;;;;;;;;;;;;;;4.13;72.01;101955.72;5037436;27;20678;-66
2022/01/20 08:53:03;;;;;;;;;;;;;;;4.21;71.85;101950.13;5027690;27;20152;-69
2022/01/20 08:55:28;;;;;;;;;;;;;;;4.51;71.51;101954.97;5033923;27;19908;-69
2022/01/20 08:57:55;;;;;;;;;;;;;;;4.55;70.97;101955.69;5051791;27;19915;-68
2022/01/20 09:00:21;;;;;;;;;;;;;;;4.58;69.88;101960.78;5060435;27;19922;-66
2022/01/20 09:02:46;;;;;;;;;;;;;;;4.67;70.12;101963.00;5041767;27;19907;-66
2022/01/20 09:05:11;;;;;;;;;;;;;;;4.74;69.01;101964.44;5056011;27;20280;-67
2022/01/20 09:07:37;;;;;;;;;;;;;;;4.77;67.84;101980.03;5019609;27;20024;-67
2022/01/20 09:10:04;;;;;;;;;;;;;;;5.05;66.88;101986.66;5015217;27;19908;-67
2022/01/20 09:17:42;;;;;;;;;;;;;;;5.18;66.26;101994.81;5039400;27;19918;-66
2022/01/20 09:20:07;;;;;;;;;;;;;;;4.84;67.70;101995.47;5009404;27;19962;-69
2022/01/20 09:22:33;;;;;;;;;;;;;;;4.63;69.17;101985.88;5031442;27;19916;-69
2022/01/20 09:24:58;;;;;;;;;;;;;;;4.60;70.60;101985.19;5025071;27;19933;-66
2022/01/20 09:27:23;;;;;;;;;;;;;;;4.82;69.90;101985.06;5054231;27;19913;-67
2022/01/20 09:29:48;;;;;;;;;;;;;;;4.89;68.55;101980.41;5053983;27;20203;-68
2022/01/20 09:32:16;;;;;;;;;;;;;;;5.44;66.74;101977.84;5055741;27;20202;-69
2022/01/20 09:34:41;;;;;;;;;;;;;;;6.21;65.97;101969.78;5032507;27;19908;-68
2022/01/20 09:37:06;;;;;;;;;;;;;;;6.54;63.34;101985.59;5034331;27;19903;-67
2022/01/20 09:39:32;;;;;;;;;;;;;;;6.83;63.30;101975.31;5054126;27;20318;-66
2022/01/20 09:41:58;;;;;;;;;;;;;;;6.98;60.13;101984.16;5053405;27;20902;-66
2022/01/20 09:44:23;;;;;;;;;;;;;;;7.19;59.53;101985.63;5056075;27;19899;-67
2022/01/20 09:46:48;;;;;;;;;;;;;;;7.81;58.04;101995.38;5033769;27;20250;-68
2022/01/20 09:49:14;;;;;;;;;;;;;;;7.94;55.51;102005.19;5018496;27;19903;-68
2022/01/20 09:51:39;;;;;;;;;;;;;;;7.97;54.90;102010.31;5015483;27;19932;-67
2022/01/20 09:54:05;;;;;;;;;;;;;;;7.98;54.19;102017.25;5018201;27;19908;-67
2022/01/20 09:56:30;;;;;;;;;;;;;;;8.59;54.58;102012.84;5055858;27;19907;-67
2022/01/20 09:58:55;;;;;;;;;;;;;;;7.72;54.51;102019.59;5053592;27;20736;-68
2022/01/20 10:01:36;;;;;;;;;;;;;;;6.61;56.16;102017.69;5056714;27;20438;-67
2022/01/20 10:04:02;;;;;;;;;;;;;;;6.39;58.26;102034.56;5034021;27;20581;-67
2022/01/20 10:06:27;;;;;;;;;;;;;;;6.87;57.71;102029.47;5038651;27;20009;-67
2022/01/20 10:08:59;;;;;;;;;;;;;;;7.37;56.64;102035.56;5051140;27;19911;-66
2022/01/20 10:11:24;;;;;;;;;;;;;;;7.44;55.98;102033.47;5052410;27;20165;-67
2022/01/20 10:13:50;;;;;;;;;;;;;;;7.12;55.67;102038.69;5019886;27;20081;-67
2022/01/20 10:16:16;;;;;;;;;;;;;;;7.11;56.76;102037.00;5035203;27;20012;-67
2022/01/20 10:18:44;;;;;;;;;;;;;;;6.62;56.56;102038.63;5035530;27;19947;-66
2022/01/20 10:21:10;;;;;;;;;;;;;;;6.21;57.52;102048.63;5054631;27;20066;-67
2022/01/20 10:23:42;;;;;;;;;;;;;;;6.18;58.18;102047.00;5061739;27;20763;-67
2022/01/20 10:26:11;;;;;;;;;;;;;;;6.26;58.76;102046.63;5037136;27;19903;-67
2022/01/20 10:28:44;;;;;;;;;;;;;;;6.30;58.85;102045.53;5034441;27;20105;-67
2022/01/20 10:31:11;;;;;;;;;;;;;;;6.91;57.43;102051.19;5034545;27;20832;-69
2022/01/20 10:33:42;;;;;;;;;;;;;;;6.96;56.97;102055.28;5053890;27;19951;-67
2022/01/20 10:36:08;;;;;;;;;;;;;;;6.37;57.56;102057.44;5017498;27;20020;-67
2022/01/20 10:38:33;;;;;;;;;;;;;;;6.37;57.68;102062.69;5026347;28;20706;-66
2022/01/20 10:40:59;;;;;;;;;;;;;;;6.18;57.94;102062.78;5036909;27;20190;-69
2022/01/20 10:43:34;;;;;;;;;;;;;;;6.03;57.65;102074.03;5043494;27;19907;-69
2022/01/20 10:46:06;;;;;;;;;;;;;;;5.95;57.84;102066.47;5056555;27;19919;-67
2022/01/20 10:48:32;;;;;;;;;;;;;;;5.49;58.94;102075.59;5058803;27;19941;-68
2022/01/20 10:50:57;;;;;;;;;;;;;;;5.40;58.96;102076.06;5055150;27;20024;-69
2022/01/20 10:53:22;;;;;;;;;;;;;;;5.40;59.51;102073.44;5035913;27;20298;-66
2022/01/20 10:55:48;;;;;;;;;;;;;;;5.48;60.87;102076.53;5017463;27;20047;-69
2022/01/20 10:58:15;;;;;;;;;;;;;;;5.70;60.03;102086.06;5017391;27;19907;-69
2022/01/20 11:00:45;;;;;;;;;;;;;;;6.01;59.87;102088.09;5036154;27;20749;-68
2022/01/20 11:03:10;;;;;;;;;;;;;;;6.05;59.85;102075.66;5038344;27;19913;-67
2022/01/20 11:05:35;;;;;;;;;;;;;;;5.95;60.16;102083.13;5037419;27;20808;-66
2022/01/20 11:08:00;;;;;;;;;;;;;;;5.77;60.15;102084.00;5037309;27;20398;-66
2022/01/20 11:10:26;;;;;;;;;;;;;;;5.55;61.24;102082.34;5039139;27;20729;-68
2022/01/20 11:12:51;;;;;;;;;;;;;;;5.27;61.70;102074.88;5018464;27;20721;-67
2022/01/20 11:15:17;;;;;;;;;;;;;;;5.04;61.75;102079.41;5017140;27;20778;-69
2022/01/20 11:17:42;;;;;;;;;;;;;;;5.21;61.20;102077.81;5035241;27;19903;-67
2022/01/20 11:20:12;;;;;;;;;;;;;;;5.07;61.64;102087.13;5036616;27;19915;-67
2022/01/20 11:22:38;;;;;;;;;;;;;;;4.82;61.58;102077.72;5024342;27;19907;-67
2022/01/20 11:25:04;;;;;;;;;;;;;;;4.75;63.16;102068.41;5032373;27;19917;-67
2022/01/20 11:27:36;;;;;;;;;;;;;;;4.75;62.26;102070.16;5039247;27;20247;-66
2022/01/20 11:30:02;;;;;;;;;;;;;;;4.91;63.32;102063.34;5033836;27;20741;-67
2022/01/20 11:32:29;;;;;;;;;;;;;;;4.77;63.88;102065.72;5033527;27;20338;-67
2022/01/20 11:35:02;;;;;;;;;;;;;;;4.80;63.54;102060.34;5020483;27;20012;-68
2022/01/20 11:37:28;;;;;;;;;;;;;;;4.72;63.78;102065.06;5038886;27;19911;-67
2022/01/20 11:39:53;;;;;;;;;;;;;;;4.55;63.64;102052.69;5035702;27;20057;-68
2022/01/20 11:42:23;;;;;;;;;;;;;;;4.54;64.78;102057.09;5033509;27;20421;-68
2022/01/20 11:44:48;;;;;;;;;;;;;;;4.62;63.85;102062.81;5037987;27;20204;-68
2022/01/20 11:47:13;;;;;;;;;;;;;;;4.71;63.52;102053.75;5039113;27;20685;-67
2022/01/20 11:49:39;;;;;;;;;;;;;;;4.74;63.48;102071.94;5054319;27;20028;-68
2022/01/20 11:52:05;;;;;;;;;;;;;;;4.79;63.36;102062.13;5053415;27;19945;-67
2022/01/20 11:54:35;;;;;;;;;;;;;;;4.98;62.81;102070.03;5020650;27;19917;-67
2022/01/20 11:57:04;;;;;;;;;;;;;;;5.43;61.72;102070.66;5033259;27;19961;-68
2022/01/20 11:59:34;;;;;;;;;;;;;;;7.53;56.71;102077.72;5037604;27;19929;-69
2022/01/20 12:01:59;;;;;;;;;;;;;;;9.10;49.86;102079.22;5037149;27;19914;-67
2022/01/20 12:04:31;;;;;;;;;;;;;;;10.23;47.27;102065.94;5040584;27;20016;-67
2022/01/20 12:06:56;;;;;;;;;;;;;;;11.61;45.48;102055.53;5020177;27;20167;-67
2022/01/20 12:09:33;;;;;;;;;;;;;;;12.16;42.39;102050.66;5069349;27;20241;-67
2022/01/20 12:11:59;;;;;;;;;;;;;;;11.02;44.25;102048.25;5064363;27;19925;-67
2022/01/20 12:14:38;;;;;;;;;;;;;;;9.26;47.60;102049.22;5058645;27;19930;-67
2022/01/20 12:17:11;;;;;;;;;;;;;;;8.82;49.26;102047.53;5081634;27;19906;-66
2022/01/20 12:19:37;;;;;;;;;;;;;;;9.72;48.91;102042.81;5063128;27;20444;-67
2022/01/20 12:22:02;;;;;;;;;;;;;;;10.58;46.15;102039.78;5052969;27;20020;-68
2022/01/20 12:24:28;;;;;;;;;;;;;;;10.85;45.28;102044.13;5026459;27;20012;-69
2022/01/20 12:26:53;;;;;;;;;;;;;;;10.13;46.10;102048.03;5027147;27;19903;-68
2022/01/20 12:29:18;;;;;;;;;;;;;;;9.69;47.29;102041.22;5062400;27;19908;-66
2022/01/20 12:31:48;;;;;;;;;;;;;;;9.70;47.41;102050.00;5062066;27;20667;-67
2022/01/20 12:34:13;;;;;;;;;;;;;;;8.50;48.69;102043.28;5043012;27;19914;-69
2022/01/20 12:36:39;;;;;;;;;;;;;;;8.11;51.55;102035.84;5063821;27;19948;-68
2022/01/20 12:39:05;;;;;;;;;;;;;;;8.19;50.63;102042.41;5060685;27;19956;-68
2022/01/20 12:41:30;;;;;;;;;;;;;;;8.61;50.29;102041.78;5042156;27;20297;-69
2022/01/20 12:43:59;;;;;;;;;;;;;;;8.74;51.39;102040.06;5042590;27;20724;-68
2022/01/20 12:46:25;;;;;;;;;;;;;;;9.07;50.11;102049.53;5061460;27;20405;-68
2022/01/20 12:48:55;;;;;;;;;;;;;;;8.57;50.76;102034.03;5023365;27;20645;-68
2022/01/20 12:51:28;;;;;;;;;;;;;;;8.87;49.29;102017.28;5024663;27;20694;-68
2022/01/20 12:53:58;;;;;;;;;;;;;;;8.83;49.84;102023.69;5023884;27;20093;-67
2022/01/20 12:56:32;;;;;;;;;;;;;;;8.25;51.29;102028.84;5042904;27;19914;-67
2022/01/20 12:58:57;;;;;;;;;;;;;;;7.41;53.79;102023.09;5043580;27;19903;-68
2022/01/20 13:01:23;;;;;;;;;;;;;;;6.83;55.53;102023.53;5063172;27;19910;-68
2022/01/20 13:03:48;;;;;;;;;;;;;;;6.60;56.86;102021.22;5061066;27;20145;-68
2022/01/20 13:06:22;;;;;;;;;;;;;;;6.38;57.64;102018.88;5044255;27;19904;-67
2022/01/20 13:09:06;;;;;;;;;;;;;;;5.90;59.60;102026.47;5032816;27;19967;-67
2022/01/20 13:11:32;;;;;;;;;;;;;;;5.82;60.55;102035.56;5037666;27;20256;-68
2022/01/20 13:13:58;;;;;;;;;;;;;;;5.84;61.77;102052.09;5039651;27;19930;-68
2022/01/20 13:16:23;;;;;;;;;;;;;;;5.62;62.07;102046.16;5051367;27;20789;-66
2022/01/20 13:18:54;;;;;;;;;;;;;;;5.26;64.13;102037.31;5057357;27;19899;-66
2022/01/20 13:21:20;;;;;;;;;;;;;;;5.02;65.74;102027.91;5057503;27;19907;-66
2022/01/20 13:23:58;;;;;;;;;;;;;;;4.69;66.34;102020.63;5054757;27;20103;-68
2022/01/20 13:26:23;;;;;;;;;;;;;;;4.63;68.04;102032.25;5055825;27;20486;-67
2022/01/20 13:28:58;;;;;;;;;;;;;;;4.59;67.65;102033.28;5035849;27;20729;-67
2022/01/20 13:31:24;;;;;;;;;;;;;;;4.59;67.87;102035.91;5055491;27;20028;-66
2022/01/20 13:33:49;;;;;;;;;;;;;;;4.69;67.88;102062.59;5057172;27;20804;-67
2022/01/20 13:36:14;;;;;;;;;;;;;;;4.26;70.90;102060.00;5034528;27;20813;-67
2022/01/20 13:38:46;;;;;;;;;;;;;;;3.70;72.55;102069.22;5054261;27;19934;-67
2022/01/20 13:41:12;;;;;;;;;;;;;;;3.65;73.01;102068.53;5036253;27;20304;-69
2022/01/20 13:46:31;;;;;;;;;;;;;;;2.97;75.38;102056.19;5038706;27;19930;-68
2022/01/20 13:49:05;;;;;;;;;;;;;;;2.90;76.82;102054.72;5035259;27;19936;-68
2022/01/20 13:51:31;;;;;;;;;;;;;;;2.62;78.55;102044.38;5056277;27;20039;-68
2022/01/20 13:53:56;;;;;;;;;;;;;;;2.68;79.69;102055.47;5016995;27;19911;-67